Time;durP1;ratioP1;P1;durP2;ratioP2;P2;SDS_P1;SDS_P2;PMS_P1;PMS_P2;Temp;Humidity;BMP_temperature;BMP_pressure;BME280_temperature;BME280_humidity;BME280_pressure;Samples;Min_cycle;Max_cycle;Signal;HPM_P1;HPM_P2
2024/01/07 00:01:09;;;;;;;11.52;4.53;;;;;;;;;;10233485;28;20221;-69
2024/01/07 00:06:11;;;;;;;7.90;3.85;;;;;;;;;;10252765;28;20197;-69
2024/01/07 00:11:12;;;;;;;6.55;3.92;;;;;;;;;;10253008;28;20265;-69
2024/01/07 00:16:13;;;;;;;10.18;4.22;;;;;;;;;;10252963;28;20210;-69
2024/01/07 00:21:14;;;;;;;8.27;4.55;;;;;;;;;;10276014;28;20209;-68
2024/01/07 00:26:15;;;;;;;7.15;4.20;;;;;;;;;;10264005;28;20241;-68
2024/01/07 00:31:16;;;;;;;5.80;4.28;;;;;;;;;;10266223;28;20313;-68
2024/01/07 00:36:17;;;;;;;4.95;3.58;;;;;;;;;;10266037;28;20221;-68
2024/01/07 00:41:18;;;;;;;6.60;3.55;;;;;;;;;;10269475;28;20625;-68
2024/01/07 00:46:19;;;;;;;4.28;2.70;;;;;;;;;;10280723;28;20222;-68
2024/01/07 00:51:20;;;;;;;4.00;3.50;;;;;;;;;;10267755;28;20213;-68
2024/01/07 00:56:21;;;;;;;6.90;3.80;;;;;;;;;;10266109;28;20696;-69
2024/01/07 01:01:22;;;;;;;2.90;2.70;;;;;;;;;;10273549;28;20738;-68
2024/01/07 01:06:23;;;;;;;4.35;3.65;;;;;;;;;;10274804;28;20189;-68
2024/01/07 01:11:24;;;;;;;4.00;2.30;;;;;;;;;;10267993;28;20609;-68
2024/01/07 01:16:25;;;;;;;2.40;2.20;;;;;;;;;;10270809;28;20213;-68
2024/01/07 01:21:26;;;;;;;2.58;2.38;;;;;;;;;;10277903;28;20712;-68
2024/01/07 01:26:27;;;;;;;3.00;2.72;;;;;;;;;;10271744;28;20199;-68
2024/01/07 01:31:28;;;;;;;2.50;2.30;;;;;;;;;;10271656;28;20220;-68
2024/01/07 01:36:31;;;;;;;3.42;2.35;;;;;;;;;;10275500;28;20221;-68
2024/01/07 01:41:33;;;;;;;2.58;1.95;;;;;;;;;;10266987;28;20227;-68
2024/01/07 01:46:34;;;;;;;2.92;1.95;;;;;;;;;;10274096;28;20719;-68
2024/01/07 01:51:36;;;;;;;3.10;1.85;;;;;;;;;;10264578;28;20216;-68
2024/01/07 01:56:37;;;;;;;8.07;2.28;;;;;;;;;;10275134;28;20244;-68
2024/01/07 02:01:38;;;;;;;1.33;1.20;;;;;;;;;;10278885;28;20950;-67
2024/01/07 02:06:39;;;;;;;2.30;1.35;;;;;;;;;;10269032;28;20190;-68
2024/01/07 02:11:40;;;;;;;1.48;1.45;;;;;;;;;;10293232;28;20221;-68
2024/01/07 02:16:41;;;;;;;1.83;1.73;;;;;;;;;;10271989;28;20225;-68
2024/01/07 02:21:42;;;;;;;2.05;1.80;;;;;;;;;;10287280;28;20301;-68
2024/01/07 02:26:43;;;;;;;2.70;1.85;;;;;;;;;;10292334;28;20217;-68
2024/01/07 02:31:44;;;;;;;2.75;1.80;;;;;;;;;;10285246;28;20707;-68
2024/01/07 02:36:45;;;;;;;1.58;1.48;;;;;;;;;;10266232;28;20576;-68
2024/01/07 02:41:47;;;;;;;2.20;1.73;;;;;;;;;;10292795;28;20228;-68
2024/01/07 02:46:48;;;;;;;1.73;1.65;;;;;;;;;;10272652;28;20201;-67
2024/01/07 02:51:50;;;;;;;1.63;1.52;;;;;;;;;;10275718;28;20275;-67
2024/01/07 02:56:51;;;;;;;4.82;1.80;;;;;;;;;;10266985;28;20930;-67
2024/01/07 03:01:52;;;;;;;2.05;1.52;;;;;;;;;;10275773;28;20223;-67
2024/01/07 03:06:53;;;;;;;2.58;1.48;;;;;;;;;;10260845;28;20200;-67
2024/01/07 03:11:54;;;;;;;2.22;1.38;;;;;;;;;;10275068;28;20729;-67
2024/01/07 03:16:55;;;;;;;8.95;1.40;;;;;;;;;;10270082;28;20212;-68
2024/01/07 03:21:56;;;;;;;1.10;1.10;;;;;;;;;;10278444;28;20215;-67
2024/01/07 03:26:57;;;;;;;3.85;1.60;;;;;;;;;;10267954;28;20231;-67
2024/01/07 03:31:58;;;;;;;1.47;1.37;;;;;;;;;;10289428;28;20891;-67
2024/01/07 03:36:59;;;;;;;1.73;1.00;;;;;;;;;;10281685;28;20295;-66
2024/01/07 03:42:00;;;;;;;1.20;0.85;;;;;;;;;;10262556;28;21011;-67
2024/01/07 03:47:01;;;;;;;1.00;1.00;;;;;;;;;;10269553;28;20188;-66
2024/01/07 03:52:02;;;;;;;0.60;0.60;;;;;;;;;;10267341;28;20221;-67
2024/01/07 03:57:03;;;;;;;0.60;0.60;;;;;;;;;;10265710;28;20267;-67
2024/01/07 04:02:04;;;;;;;1.20;0.70;;;;;;;;;;10270918;28;20249;-67
2024/01/07 04:07:05;;;;;;;1.25;0.80;;;;;;;;;;10270980;28;20719;-67
2024/01/07 04:12:06;;;;;;;0.88;0.40;;;;;;;;;;10271420;28;20209;-67
2024/01/07 04:17:08;;;;;;;0.30;0.30;;;;;;;;;;10268572;28;20204;-67
2024/01/07 04:22:09;;;;;;;2.00;0.60;;;;;;;;;;10279720;28;21780;-67
2024/01/07 04:27:10;;;;;;;0.40;0.40;;;;;;;;;;10275840;28;20202;-67
2024/01/07 04:32:11;;;;;;;0.30;0.30;;;;;;;;;;10263928;28;20726;-67
2024/01/07 04:37:12;;;;;;;2.80;0.80;;;;;;;;;;10271154;28;20241;-66
2024/01/07 04:42:13;;;;;;;1.05;0.55;;;;;;;;;;10265581;28;20696;-67
2024/01/07 04:47:30;;;;;;;0.63;0.53;;;;;;;;;;10265744;28;20200;-67
2024/01/07 04:52:31;;;;;;;2.28;0.68;;;;;;;;;;10270167;28;20728;-67
2024/01/07 04:57:32;;;;;;;3.30;0.80;;;;;;;;;;10273077;28;20299;-67
2024/01/07 05:02:33;;;;;;;0.47;0.47;;;;;;;;;;10263423;28;20221;-70
2024/01/07 05:07:34;;;;;;;0.73;0.60;;;;;;;;;;10255890;28;20189;-67
2024/01/07 05:12:34;;;;;;;1.63;0.80;;;;;;;;;;10267314;28;20212;-67
2024/01/07 05:17:35;;;;;;;0.60;0.60;;;;;;;;;;10265585;28;20300;-67
2024/01/07 05:22:37;;;;;;;1.37;1.20;;;;;;;;;;10268250;28;20210;-68
2024/01/07 05:27:38;;;;;;;0.75;0.40;;;;;;;;;;10268401;28;20730;-67
2024/01/07 05:32:40;;;;;;;0.60;0.60;;;;;;;;;;10257322;28;20218;-67
2024/01/07 05:37:41;;;;;;;0.60;0.60;;;;;;;;;;10263678;28;20221;-66
2024/01/07 05:42:42;;;;;;;1.03;0.50;;;;;;;;;;10266487;28;20721;-66
2024/01/07 05:47:43;;;;;;;1.35;0.30;;;;;;;;;;10244045;28;20285;-67
2024/01/07 05:52:44;;;;;;;0.95;0.63;;;;;;;;;;10268451;28;20247;-67
2024/01/07 05:57:45;;;;;;;0.50;0.50;;;;;;;;;;10274457;28;20213;-67
2024/01/07 06:02:46;;;;;;;0.60;0.60;;;;;;;;;;10266789;28;20934;-67
2024/01/07 06:07:47;;;;;;;1.05;0.50;;;;;;;;;;10258095;28;20255;-67
2024/01/07 06:12:48;;;;;;;1.40;0.60;;;;;;;;;;10269845;28;20216;-67
2024/01/07 06:17:50;;;;;;;0.37;0.30;;;;;;;;;;10268319;28;20671;-67
2024/01/07 06:22:51;;;;;;;0.75;0.75;;;;;;;;;;10276059;28;20210;-66
2024/01/07 06:27:52;;;;;;;0.70;0.70;;;;;;;;;;10282173;28;20243;-67
2024/01/07 06:32:53;;;;;;;0.50;0.50;;;;;;;;;;10276075;28;20267;-66
2024/01/07 06:37:54;;;;;;;0.77;0.50;;;;;;;;;;10274055;28;20213;-66
2024/01/07 06:42:56;;;;;;;3.10;0.80;;;;;;;;;;10295477;28;20213;-67
2024/01/07 06:47:57;;;;;;;1.35;0.70;;;;;;;;;;10272170;28;20691;-67
2024/01/07 06:52:58;;;;;;;1.85;0.82;;;;;;;;;;10270564;28;20279;-67
2024/01/07 06:58:00;;;;;;;1.27;0.80;;;;;;;;;;10282166;28;20693;-67
2024/01/07 07:03:01;;;;;;;0.80;0.80;;;;;;;;;;10296583;28;20214;-67
2024/01/07 07:08:02;;;;;;;2.90;1.77;;;;;;;;;;10269270;28;20874;-67
2024/01/07 07:13:03;;;;;;;1.30;1.20;;;;;;;;;;10277810;28;20272;-67
2024/01/07 07:18:04;;;;;;;1.88;1.48;;;;;;;;;;10270413;28;20213;-67
2024/01/07 07:23:05;;;;;;;1.95;1.38;;;;;;;;;;10275541;28;20288;-68
2024/01/07 07:28:06;;;;;;;0.65;0.65;;;;;;;;;;10266557;28;20870;-68
2024/01/07 07:33:07;;;;;;;4.50;2.03;;;;;;;;;;10274237;28;20225;-67
2024/01/07 07:38:08;;;;;;;1.03;1.03;;;;;;;;;;10273968;28;20209;-66
2024/01/07 07:43:10;;;;;;;2.60;1.47;;;;;;;;;;10272338;28;20260;-68
2024/01/07 07:48:11;;;;;;;1.80;1.00;;;;;;;;;;10279629;28;20205;-67
2024/01/07 07:53:12;;;;;;;4.27;1.00;;;;;;;;;;10267202;28;20268;-69
2024/01/07 07:58:14;;;;;;;1.10;1.00;;;;;;;;;;10287407;28;20217;-68
2024/01/07 08:03:15;;;;;;;1.33;1.23;;;;;;;;;;10272521;28;20639;-68
2024/01/07 08:08:19;;;;;;;1.15;0.95;;;;;;;;;;10263824;28;20185;-68
2024/01/07 08:13:20;;;;;;;1.55;0.90;;;;;;;;;;10278044;28;20220;-68
2024/01/07 08:18:21;;;;;;;3.17;1.30;;;;;;;;;;10264162;28;20711;-68
2024/01/07 08:23:22;;;;;;;0.70;0.70;;;;;;;;;;10278896;28;20260;-68
2024/01/07 08:28:23;;;;;;;0.75;0.75;;;;;;;;;;10275361;28;20241;-68
2024/01/07 08:33:25;;;;;;;1.23;0.80;;;;;;;;;;10272665;28;20317;-69
2024/01/07 08:38:26;;;;;;;1.40;0.85;;;;;;;;;;10259356;28;20213;-69
2024/01/07 08:43:27;;;;;;;0.70;0.70;;;;;;;;;;10275147;28;21015;-69
2024/01/07 08:48:28;;;;;;;2.25;1.00;;;;;;;;;;10257222;28;20208;-67
2024/01/07 08:53:29;;;;;;;0.73;0.73;;;;;;;;;;10261436;28;20217;-69
2024/01/07 08:58:30;;;;;;;0.90;0.60;;;;;;;;;;10273046;28;20308;-69
2024/01/07 09:03:31;;;;;;;1.45;0.70;;;;;;;;;;10260742;28;20279;-69
2024/01/07 09:08:32;;;;;;;1.35;1.25;;;;;;;;;;10265659;28;20255;-69
2024/01/07 09:13:33;;;;;;;0.73;0.73;;;;;;;;;;10280181;28;20217;-69
2024/01/07 09:18:34;;;;;;;1.17;1.00;;;;;;;;;;10255629;28;20216;-69
2024/01/07 09:23:36;;;;;;;0.88;0.88;;;;;;;;;;10253223;28;20213;-69
2024/01/07 09:28:37;;;;;;;1.10;1.00;;;;;;;;;;10251171;28;20217;-69
2024/01/07 09:33:38;;;;;;;1.27;0.88;;;;;;;;;;10262397;28;20209;-70
2024/01/07 09:38:40;;;;;;;1.70;0.97;;;;;;;;;;10261127;28;20703;-69
2024/01/07 09:43:41;;;;;;;1.50;1.00;;;;;;;;;;10251670;28;20752;-70
2024/01/07 09:48:42;;;;;;;1.00;1.00;;;;;;;;;;10263552;28;20221;-69
2024/01/07 09:53:44;;;;;;;2.20;1.17;;;;;;;;;;10265294;28;20201;-69
2024/01/07 09:58:49;;;;;;;1.02;1.00;;;;;;;;;;10260154;28;20210;-69
2024/01/07 10:03:50;;;;;;;1.38;1.08;;;;;;;;;;10282563;28;20225;-69
2024/01/07 10:08:51;;;;;;;4.97;1.25;;;;;;;;;;10255938;28;20245;-69
2024/01/07 10:13:53;;;;;;;0.90;0.90;;;;;;;;;;10276541;28;20225;-69
2024/01/07 10:18:54;;;;;;;1.40;0.98;;;;;;;;;;10267026;28;20309;-69
2024/01/07 10:24:09;;;;;;;1.60;1.25;;;;;;;;;;10252031;28;20612;-69
2024/01/07 10:29:10;;;;;;;0.88;0.68;;;;;;;;;;10269538;28;20210;-69
2024/01/07 10:34:11;;;;;;;1.65;1.13;;;;;;;;;;10271319;28;22038;-69
2024/01/07 10:39:15;;;;;;;1.80;1.13;;;;;;;;;;10263122;28;20221;-69
2024/01/07 10:44:16;;;;;;;1.80;1.65;;;;;;;;;;10269796;28;20699;-70
2024/01/07 10:49:21;;;;;;;2.17;1.98;;;;;;;;;;10265100;28;20248;-70
2024/01/07 10:54:23;;;;;;;0.90;0.65;;;;;;;;;;10266086;28;20221;-70
2024/01/07 10:59:25;;;;;;;3.55;1.20;;;;;;;;;;10264698;28;20716;-70
2024/01/07 11:04:32;;;;;;;1.98;1.02;;;;;;;;;;10265812;28;20716;-69
2024/01/07 11:09:38;;;;;;;1.63;1.52;;;;;;;;;;10260212;28;20198;-70
2024/01/07 11:14:45;;;;;;;0.95;0.95;;;;;;;;;;10276079;28;20197;-70
2024/01/07 11:19:52;;;;;;;1.27;1.23;;;;;;;;;;10286562;28;20240;-69
2024/01/07 11:24:57;;;;;;;2.10;1.70;;;;;;;;;;10254695;28;20754;-69
2024/01/07 11:30:01;;;;;;;1.20;1.20;;;;;;;;;;10267299;28;20229;-69
2024/01/07 11:35:02;;;;;;;3.22;1.90;;;;;;;;;;10273375;28;20641;-70
2024/01/07 11:40:05;;;;;;;1.20;1.10;;;;;;;;;;10264654;28;20217;-70
2024/01/07 11:45:07;;;;;;;1.50;1.50;;;;;;;;;;10284856;28;20679;-69
2024/01/07 11:50:08;;;;;;;5.72;2.35;;;;;;;;;;10256996;28;20494;-71
2024/01/07 11:55:09;;;;;;;1.48;1.35;;;;;;;;;;10266928;28;20360;-70
2024/01/07 12:00:10;;;;;;;2.33;1.27;;;;;;;;;;10275578;28;20688;-70
2024/01/07 12:05:15;;;;;;;2.00;1.42;;;;;;;;;;10274077;28;20304;-70
2024/01/07 12:10:17;;;;;;;2.05;2.00;;;;;;;;;;10268329;28;20214;-70
2024/01/07 12:15:19;;;;;;;1.33;1.30;;;;;;;;;;10268945;28;20310;-70
2024/01/07 12:20:20;;;;;;;1.50;1.40;;;;;;;;;;10259028;28;20594;-70
2024/01/07 12:25:25;;;;;;;2.60;1.05;;;;;;;;;;10268246;28;20190;-69
2024/01/07 12:30:26;;;;;;;1.17;1.17;;;;;;;;;;10266885;28;20713;-70
2024/01/07 12:35:29;;;;;;;2.20;1.48;;;;;;;;;;10253011;28;20648;-70
2024/01/07 12:40:30;;;;;;;2.50;1.17;;;;;;;;;;10266020;28;20214;-70
2024/01/07 12:45:32;;;;;;;2.92;1.65;;;;;;;;;;10252957;28;20558;-70
2024/01/07 12:50:33;;;;;;;2.75;1.05;;;;;;;;;;10270811;28;20206;-70
2024/01/07 12:55:35;;;;;;;3.50;1.15;;;;;;;;;;10261881;28;20197;-70
2024/01/07 13:00:36;;;;;;;0.80;0.80;;;;;;;;;;10268979;28;20217;-70
2024/01/07 13:05:37;;;;;;;1.73;1.45;;;;;;;;;;10256330;28;20885;-71
2024/01/07 13:10:38;;;;;;;2.05;1.50;;;;;;;;;;10263894;28;20304;-70
2024/01/07 13:15:41;;;;;;;0.95;0.95;;;;;;;;;;10275552;28;20208;-70
2024/01/07 13:20:42;;;;;;;1.00;0.90;;;;;;;;;;10272068;28;20214;-69
2024/01/07 13:25:43;;;;;;;3.40;1.00;;;;;;;;;;10252238;28;20657;-69
2024/01/07 13:30:44;;;;;;;1.02;1.02;;;;;;;;;;10253995;28;20746;-70
2024/01/07 13:35:46;;;;;;;1.10;1.00;;;;;;;;;;10275816;28;20796;-70
2024/01/07 13:40:47;;;;;;;1.17;1.17;;;;;;;;;;10260767;28;22579;-70
2024/01/07 13:45:48;;;;;;;2.38;1.00;;;;;;;;;;10272889;28;20189;-70
2024/01/07 13:50:49;;;;;;;1.00;1.00;;;;;;;;;;10268806;28;20240;-70
2024/01/07 13:55:50;;;;;;;2.42;1.17;;;;;;;;;;10278131;28;20209;-70
2024/01/07 14:00:52;;;;;;;1.73;1.08;;;;;;;;;;10258695;28;20225;-70
2024/01/07 14:05:54;;;;;;;1.08;1.08;;;;;;;;;;10264197;28;20193;-70
2024/01/07 14:10:55;;;;;;;1.17;1.10;;;;;;;;;;10250234;28;20259;-70
2024/01/07 14:15:56;;;;;;;1.35;1.02;;;;;;;;;;10261209;28;20243;-70
2024/01/07 14:20:57;;;;;;;2.05;0.90;;;;;;;;;;10261426;28;20244;-70
2024/01/07 14:25:58;;;;;;;1.02;0.90;;;;;;;;;;10256371;28;20208;-69
2024/01/07 14:30:59;;;;;;;1.88;1.67;;;;;;;;;;10260564;28;20228;-69
2024/01/07 14:36:03;;;;;;;5.55;1.83;;;;;;;;;;10266414;28;20441;-70
2024/01/07 14:41:04;;;;;;;1.25;1.17;;;;;;;;;;10283152;28;20295;-70
2024/01/07 14:46:07;;;;;;;2.10;1.30;;;;;;;;;;10259920;28;20660;-70
2024/01/07 14:51:08;;;;;;;2.13;1.20;;;;;;;;;;10261253;28;20221;-70
2024/01/07 14:56:09;;;;;;;1.58;1.35;;;;;;;;;;10277028;28;20881;-72
2024/01/07 15:01:10;;;;;;;1.80;1.10;;;;;;;;;;10263095;28;20305;-70
2024/01/07 15:06:14;;;;;;;1.98;0.90;;;;;;;;;;10264362;28;20185;-70
2024/01/07 15:11:16;;;;;;;0.93;0.90;;;;;;;;;;10260536;28;20695;-70
2024/01/07 15:16:17;;;;;;;0.90;0.90;;;;;;;;;;10261200;28;20404;-72
2024/01/07 15:21:18;;;;;;;1.05;1.05;;;;;;;;;;10275438;28;20213;-69
2024/01/07 15:26:19;;;;;;;1.42;0.95;;;;;;;;;;10277893;28;20193;-70
2024/01/07 15:31:20;;;;;;;1.58;1.48;;;;;;;;;;10288166;28;20220;-70
2024/01/07 15:36:21;;;;;;;5.80;1.30;;;;;;;;;;10261044;28;20201;-69
2024/01/07 15:41:22;;;;;;;0.88;0.88;;;;;;;;;;10256458;28;20221;-70
2024/01/07 15:46:23;;;;;;;1.27;1.27;;;;;;;;;;10262827;28;20727;-69
2024/01/07 15:51:24;;;;;;;2.20;2.10;;;;;;;;;;10252903;28;20346;-69
2024/01/07 15:56:25;;;;;;;1.90;1.80;;;;;;;;;;10254925;28;20651;-69
2024/01/07 16:01:26;;;;;;;0.80;0.80;;;;;;;;;;10257385;28;20366;-69
2024/01/07 16:06:27;;;;;;;3.25;1.00;;;;;;;;;;10266147;28;20621;-69
2024/01/07 16:11:29;;;;;;;1.95;1.10;;;;;;;;;;10269274;28;20217;-69
2024/01/07 16:16:31;;;;;;;1.35;0.88;;;;;;;;;;10268135;28;20264;-69
2024/01/07 16:21:32;;;;;;;2.70;0.85;;;;;;;;;;10261903;28;20217;-69
2024/01/07 16:26:33;;;;;;;2.33;0.90;;;;;;;;;;10260382;28;20571;-69
2024/01/07 16:31:34;;;;;;;1.48;0.70;;;;;;;;;;10272513;28;20225;-69
2024/01/07 16:36:35;;;;;;;2.08;1.90;;;;;;;;;;10281749;28;20221;-69
2024/01/07 16:41:36;;;;;;;0.73;0.73;;;;;;;;;;10269624;28;20205;-69
2024/01/07 16:46:37;;;;;;;0.98;0.90;;;;;;;;;;10263645;28;20201;-69
2024/01/07 16:51:38;;;;;;;0.88;0.88;;;;;;;;;;10242191;28;20816;-69
2024/01/07 16:56:39;;;;;;;1.17;1.17;;;;;;;;;;10236799;28;20217;-69
2024/01/07 17:01:41;;;;;;;1.27;0.77;;;;;;;;;;10258387;28;20344;-69
2024/01/07 17:06:42;;;;;;;0.90;0.90;;;;;;;;;;10254404;28;20287;-70
2024/01/07 17:11:44;;;;;;;2.95;0.70;;;;;;;;;;10243698;28;20859;-69
2024/01/07 17:16:46;;;;;;;1.40;1.05;;;;;;;;;;10256643;28;20774;-69
2024/01/07 17:21:47;;;;;;;2.40;0.88;;;;;;;;;;10235361;28;20236;-70
2024/01/07 17:26:48;;;;;;;1.55;0.85;;;;;;;;;;10234863;28;20737;-69
2024/01/07 17:31:49;;;;;;;0.93;0.80;;;;;;;;;;10255669;28;20228;-69
2024/01/07 17:36:50;;;;;;;1.27;1.17;;;;;;;;;;10246394;28;20267;-69
2024/01/07 17:41:51;;;;;;;2.25;0.75;;;;;;;;;;10228211;28;20271;-69
2024/01/07 17:46:52;;;;;;;0.70;0.70;;;;;;;;;;10246529;28;20209;-69
2024/01/07 17:51:53;;;;;;;0.75;0.75;;;;;;;;;;10247931;28;20937;-69
2024/01/07 17:56:54;;;;;;;1.23;1.13;;;;;;;;;;10240316;28;20222;-69
2024/01/07 18:01:55;;;;;;;1.13;0.88;;;;;;;;;;10242685;28;20213;-69
2024/01/07 18:06:56;;;;;;;1.00;1.00;;;;;;;;;;10275262;28;20202;-69
2024/01/07 18:11:57;;;;;;;0.93;0.93;;;;;;;;;;10264266;28;20362;-69
2024/01/07 18:16:58;;;;;;;2.17;1.05;;;;;;;;;;10251072;28;20268;-70
2024/01/07 18:21:59;;;;;;;0.90;0.90;;;;;;;;;;10250101;28;20206;-69
2024/01/07 18:27:00;;;;;;;2.10;0.88;;;;;;;;;;10263520;28;20320;-69
2024/01/07 18:32:03;;;;;;;0.98;0.88;;;;;;;;;;10258967;28;20244;-69
2024/01/07 18:37:04;;;;;;;0.70;0.70;;;;;;;;;;10252609;28;20217;-69
2024/01/07 18:42:05;;;;;;;1.08;1.08;;;;;;;;;;10248428;28;20240;-69
2024/01/07 18:47:07;;;;;;;1.35;1.25;;;;;;;;;;10257101;28;20228;-69
2024/01/07 18:52:09;;;;;;;0.70;0.70;;;;;;;;;;10273026;28;20209;-69
2024/01/07 18:57:12;;;;;;;0.85;0.85;;;;;;;;;;10258473;28;20850;-69
2024/01/07 19:02:13;;;;;;;1.10;1.10;;;;;;;;;;10267566;28;20213;-69
2024/01/07 19:07:14;;;;;;;1.00;0.90;;;;;;;;;;10251629;28;20196;-69
2024/01/07 19:12:15;;;;;;;0.93;0.70;;;;;;;;;;10269012;28;20216;-69
2024/01/07 19:17:16;;;;;;;1.00;1.00;;;;;;;;;;10260056;28;20218;-68
2024/01/07 19:22:17;;;;;;;0.93;0.80;;;;;;;;;;10274243;28;20229;-69
2024/01/07 19:27:18;;;;;;;1.75;1.30;;;;;;;;;;10267958;28;20193;-69
2024/01/07 19:32:19;;;;;;;1.05;1.05;;;;;;;;;;10247298;28;20213;-69
2024/01/07 19:37:20;;;;;;;1.75;1.13;;;;;;;;;;10252921;28;20838;-69
2024/01/07 19:42:21;;;;;;;1.15;1.15;;;;;;;;;;10260481;28;20213;-68
2024/01/07 19:47:22;;;;;;;0.68;0.68;;;;;;;;;;10266953;28;20193;-69
2024/01/07 19:52:23;;;;;;;1.02;1.02;;;;;;;;;;10262645;28;20213;-69
2024/01/07 19:57:24;;;;;;;2.50;0.95;;;;;;;;;;10258144;28;20214;-69
2024/01/07 20:02:25;;;;;;;0.80;0.80;;;;;;;;;;10255838;28;20225;-69
2024/01/07 20:07:26;;;;;;;1.15;0.75;;;;;;;;;;10251996;28;20316;-70
2024/01/07 20:12:28;;;;;;;0.85;0.85;;;;;;;;;;10257380;28;20403;-69
2024/01/07 20:17:29;;;;;;;1.52;0.82;;;;;;;;;;10272056;28;20209;-69
2024/01/07 20:22:31;;;;;;;0.98;0.98;;;;;;;;;;10289274;28;20209;-69
2024/01/07 20:27:32;;;;;;;1.27;1.17;;;;;;;;;;10279276;28;20193;-69
2024/01/07 20:32:34;;;;;;;1.00;1.00;;;;;;;;;;10272582;28;20221;-69
2024/01/07 20:37:40;;;;;;;1.50;1.40;;;;;;;;;;10271019;28;20688;-68
2024/01/07 20:42:41;;;;;;;4.15;1.13;;;;;;;;;;10260258;28;20300;-69
2024/01/07 20:47:42;;;;;;;1.95;1.85;;;;;;;;;;10253062;28;20292;-69
2024/01/07 20:52:45;;;;;;;1.38;1.10;;;;;;;;;;10262799;28;20711;-69
2024/01/07 20:57:48;;;;;;;1.48;1.38;;;;;;;;;;10273313;28;20213;-69
2024/01/07 21:02:49;;;;;;;1.43;1.07;;;;;;;;;;10261052;28;20280;-69
2024/01/07 21:07:50;;;;;;;1.13;1.13;;;;;;;;;;10264903;28;20212;-69
2024/01/07 21:12:51;;;;;;;0.85;0.85;;;;;;;;;;10285677;28;20217;-69
2024/01/07 21:17:52;;;;;;;1.70;1.58;;;;;;;;;;10276104;28;20212;-69
2024/01/07 21:22:53;;;;;;;2.47;1.55;;;;;;;;;;10263272;28;20256;-69
2024/01/07 21:27:54;;;;;;;1.23;1.00;;;;;;;;;;10275176;28;20315;-69
2024/01/07 21:32:55;;;;;;;2.97;1.00;;;;;;;;;;10275976;28;20228;-70
2024/01/07 21:37:56;;;;;;;1.65;1.55;;;;;;;;;;10265872;28;20630;-69
2024/01/07 21:42:58;;;;;;;1.00;1.00;;;;;;;;;;10271158;28;20228;-69
2024/01/07 21:47:59;;;;;;;1.95;1.42;;;;;;;;;;10280173;28;20204;-70
2024/01/07 21:53:00;;;;;;;1.60;1.38;;;;;;;;;;10270979;28;20217;-69
2024/01/07 21:58:01;;;;;;;1.75;1.58;;;;;;;;;;10276713;28;20223;-69
2024/01/07 22:03:03;;;;;;;1.45;1.35;;;;;;;;;;10276985;28;20212;-69
2024/01/07 22:08:04;;;;;;;1.48;0.98;;;;;;;;;;10267862;28;20573;-69
2024/01/07 22:13:06;;;;;;;1.15;1.10;;;;;;;;;;10264786;28;20213;-70
2024/01/07 22:18:07;;;;;;;1.70;1.63;;;;;;;;;;10272322;28;20217;-70
2024/01/07 22:23:08;;;;;;;2.70;1.05;;;;;;;;;;10263654;28;20300;-69
2024/01/07 22:28:09;;;;;;;4.55;1.23;;;;;;;;;;10269947;28;20220;-70
2024/01/07 22:33:10;;;;;;;1.95;1.73;;;;;;;;;;10274374;28;20225;-70
2024/01/07 22:38:11;;;;;;;1.45;1.08;;;;;;;;;;10271707;28;20719;-70
2024/01/07 22:43:12;;;;;;;1.38;1.25;;;;;;;;;;10291839;28;20221;-70
2024/01/07 22:48:13;;;;;;;1.10;1.10;;;;;;;;;;10271254;28;20221;-69
2024/01/07 22:53:14;;;;;;;1.00;1.00;;;;;;;;;;10271639;28;20217;-69
2024/01/07 22:58:15;;;;;;;1.30;1.08;;;;;;;;;;10271963;28;20228;-69
2024/01/07 23:03:16;;;;;;;3.72;1.20;;;;;;;;;;10276393;28;20218;-69
2024/01/07 23:08:17;;;;;;;3.50;1.63;;;;;;;;;;10267865;28;20181;-69
2024/01/07 23:13:18;;;;;;;3.63;1.70;;;;;;;;;;10278899;28;20304;-69
2024/01/07 23:18:19;;;;;;;2.42;1.45;;;;;;;;;;10280018;28;20213;-69
2024/01/07 23:23:20;;;;;;;3.45;1.73;;;;;;;;;;10275287;28;20334;-69
2024/01/07 23:28:21;;;;;;;2.83;2.22;;;;;;;;;;10282769;28;20225;-69
2024/01/07 23:33:22;;;;;;;1.40;1.30;;;;;;;;;;10264887;28;20697;-69
2024/01/07 23:38:23;;;;;;;2.22;1.10;;;;;;;;;;10274071;28;20214;-69
2024/01/07 23:43:24;;;;;;;3.42;1.52;;;;;;;;;;10272623;28;20213;-69
2024/01/07 23:48:25;;;;;;;0.80;0.80;;;;;;;;;;10266447;28;20185;-69
2024/01/07 23:53:26;;;;;;;0.93;0.93;;;;;;;;;;10271336;28;20213;-69
2024/01/07 23:58:27;;;;;;;1.23;1.10;;;;;;;;;;10279807;28;20372;-69
